createdAt,value
2022-11-17T00:01:25.747Z,94398.53
2022-11-17T00:03:55.359Z,94401.75
2022-11-17T00:06:23.615Z,94400.03
2022-11-17T00:08:54.177Z,94412.81
2022-11-17T00:11:22.417Z,94418.19
2022-11-17T00:14:08.156Z,94420.81
2022-11-17T00:16:36.385Z,94422.72
2022-11-17T00:19:23.811Z,94416.34
2022-11-17T00:21:54.156Z,94416.25
2022-11-17T00:24:23.860Z,94414.72
2022-11-17T00:27:05.822Z,94406.97
2022-11-17T00:29:38.572Z,94401.59
2022-11-17T00:32:25.598Z,94399.00
2022-11-17T00:34:55.206Z,94420.56
2022-11-17T00:37:23.607Z,94416.09
2022-11-17T00:39:55.222Z,94408.28
2022-11-17T00:42:25.989Z,94409.63
2022-11-17T00:44:54.225Z,94413.19
2022-11-17T00:47:22.438Z,94405.09
2022-11-17T00:49:50.747Z,94387.53
2022-11-17T00:52:20.364Z,94395.34
2022-11-17T00:54:48.629Z,94383.00
2022-11-17T00:57:16.747Z,94397.88
2022-11-17T00:59:44.987Z,94394.28
2022-11-17T01:02:13.260Z,94393.31
2022-11-17T01:04:41.521Z,94392.75
2022-11-17T01:07:09.715Z,94367.16
2022-11-17T01:09:39.378Z,94386.50
2022-11-17T01:12:08.020Z,94385.63
2022-11-17T01:14:36.351Z,94382.66
2022-11-17T01:17:04.545Z,94377.94
2022-11-17T01:19:32.745Z,94371.16
2022-11-17T01:22:01.265Z,94371.28
2022-11-17T01:24:29.638Z,94361.75
2022-11-17T01:26:59.205Z,94355.84
2022-11-17T01:29:27.420Z,94355.34
2022-11-17T01:31:55.655Z,94365.38
2022-11-17T01:34:23.905Z,94378.13
2022-11-17T01:37:09.291Z,94375.97
2022-11-17T01:39:37.513Z,94370.94
2022-11-17T01:42:14.424Z,94370.31
2022-11-17T01:44:55.796Z,94354.38
2022-11-17T01:47:28.900Z,94366.59
2022-11-17T01:50:01.056Z,94359.84
2022-11-17T01:52:32.999Z,94359.31
2022-11-17T01:55:02.816Z,94368.50
2022-11-17T01:57:36.756Z,94327.09
2022-11-17T02:00:07.647Z,94357.84
2022-11-17T02:02:37.025Z,94365.44
2022-11-17T02:05:14.557Z,94355.19
2022-11-17T02:07:44.458Z,94362.59
2022-11-17T02:10:12.785Z,94353.59
2022-11-17T02:12:42.885Z,94355.72
2022-11-17T02:15:11.783Z,94338.19
2022-11-17T02:17:42.698Z,94329.75
2022-11-17T02:20:14.583Z,94339.91
2022-11-17T02:23:13.246Z,94329.88
2022-11-17T02:25:58.766Z,94324.28
2022-11-17T02:28:31.157Z,94326.66
2022-11-17T02:31:14.527Z,94317.59
2022-11-17T02:33:56.036Z,94312.72
2022-11-17T02:36:32.671Z,94323.84
2022-11-17T02:39:06.067Z,94323.28
2022-11-17T02:41:45.161Z,94287.16
2022-11-17T02:44:19.307Z,94334.16
2022-11-17T02:46:50.440Z,94331.22
2022-11-17T02:49:22.484Z,94329.16
2022-11-17T02:51:53.746Z,94320.72
2022-11-17T02:54:23.323Z,94323.81
2022-11-17T02:56:51.553Z,94320.94
2022-11-17T02:59:27.508Z,94334.59
2022-11-17T03:02:18.396Z,94334.34
2022-11-17T03:04:58.805Z,94313.72
2022-11-17T03:07:42.220Z,94334.06
2022-11-17T03:10:16.105Z,94318.88
2022-11-17T03:12:51.531Z,94321.94
2022-11-17T03:15:30.131Z,94338.00
2022-11-17T03:18:08.673Z,94342.75
2022-11-17T03:20:43.724Z,94328.00
2022-11-17T03:23:19.451Z,94326.06
2022-11-17T03:25:54.945Z,94326.00
2022-11-17T03:28:28.384Z,94333.25
2022-11-17T03:30:59.650Z,94323.41
2022-11-17T03:33:29.646Z,94322.16
2022-11-17T03:36:03.939Z,94325.38
2022-11-17T03:38:38.651Z,94314.97
2022-11-17T03:41:11.395Z,94314.53
2022-11-17T03:43:41.765Z,94290.47
2022-11-17T03:46:17.218Z,94234.63
2022-11-17T03:48:50.744Z,94299.63
2022-11-17T03:51:22.141Z,94300.88
2022-11-17T03:53:51.092Z,94296.88
2022-11-17T03:56:32.592Z,94291.88
2022-11-17T03:59:04.510Z,94295.34
2022-11-17T04:01:36.767Z,94295.66
2022-11-17T04:04:05.122Z,94292.22
2022-11-17T04:06:33.310Z,94292.22
2022-11-17T04:09:01.555Z,94294.25
2022-11-17T04:11:47.321Z,94291.34
2022-11-17T04:14:32.930Z,94283.94
2022-11-17T04:17:02.529Z,94280.53
2022-11-17T04:19:30.713Z,94273.72
2022-11-17T04:21:59.008Z,94277.72
2022-11-17T04:24:27.187Z,94267.84
2022-11-17T04:27:12.711Z,94261.50
2022-11-17T04:29:40.872Z,94260.91
2022-11-17T04:32:10.515Z,94257.38
2022-11-17T04:34:41.746Z,94254.53
2022-11-17T04:37:17.593Z,94249.31
2022-11-17T04:39:46.216Z,94254.75
2022-11-17T04:42:13.484Z,94258.38
2022-11-17T04:44:41.922Z,94236.91
2022-11-17T04:47:11.584Z,94222.91
2022-11-17T04:49:39.751Z,94255.84
2022-11-17T04:52:07.975Z,94237.34
2022-11-17T04:54:36.587Z,94252.50
2022-11-17T04:57:04.950Z,94241.81
2022-11-17T04:59:33.185Z,94245.63
2022-11-17T05:02:05.895Z,94246.25
2022-11-17T05:04:53.452Z,94250.59
2022-11-17T05:07:21.785Z,94254.13
2022-11-17T05:09:50.037Z,94253.91
2022-11-17T05:12:35.480Z,94262.75
2022-11-17T05:15:03.723Z,94259.78
2022-11-17T05:17:30.953Z,94248.66
2022-11-17T05:20:01.354Z,94248.41
2022-11-17T05:22:46.869Z,94245.13
2022-11-17T05:25:15.077Z,94250.59
2022-11-17T05:27:43.344Z,94254.91
2022-11-17T05:30:13.015Z,94257.25
2022-11-17T05:32:41.464Z,94258.91
2022-11-17T05:35:11.474Z,94259.91
2022-11-17T05:37:39.738Z,94270.78
2022-11-17T05:40:09.456Z,94271.47
2022-11-17T05:42:37.736Z,94261.09
2022-11-17T05:45:06.882Z,94248.16
2022-11-17T05:47:35.048Z,94249.91
2022-11-17T05:50:03.226Z,94253.34
2022-11-17T05:52:32.844Z,94253.84
2022-11-17T05:55:01.024Z,94255.25
2022-11-17T05:57:32.961Z,94259.22
2022-11-17T06:00:05.202Z,94246.06
2022-11-17T06:02:37.673Z,94245.59
2022-11-17T06:05:06.987Z,94256.22
2022-11-17T06:07:38.160Z,94254.69
2022-11-17T06:10:07.636Z,94259.88
2022-11-17T06:12:36.018Z,94256.16
2022-11-17T06:15:04.399Z,94261.31
2022-11-17T06:17:37.215Z,94267.63
2022-11-17T06:20:11.200Z,94239.38
2022-11-17T06:22:47.035Z,94265.22
2022-11-17T06:25:17.430Z,94259.63
2022-11-17T06:27:46.467Z,94254.50
2022-11-17T06:30:14.780Z,94260.97
2022-11-17T06:32:44.404Z,94262.81
2022-11-17T06:35:16.655Z,94270.91
2022-11-17T06:37:46.284Z,94270.69
2022-11-17T06:40:14.491Z,94274.47
2022-11-17T06:42:59.944Z,94277.97
2022-11-17T06:45:28.140Z,94278.44
2022-11-17T06:47:56.463Z,94283.81
2022-11-17T06:50:24.716Z,94279.50
2022-11-17T06:52:58.100Z,94283.94
2022-11-17T06:55:26.580Z,94278.84
2022-11-17T06:58:00.493Z,94285.06
2022-11-17T07:00:29.260Z,94280.19
2022-11-17T07:03:01.727Z,94270.47
2022-11-17T07:05:29.998Z,94258.41
2022-11-17T07:08:00.624Z,94254.22
2022-11-17T07:10:30.374Z,94257.06
2022-11-17T07:12:58.732Z,94254.31
2022-11-17T07:15:27.954Z,94242.84
2022-11-17T07:17:56.260Z,94247.81
2022-11-17T07:20:24.549Z,94229.34
2022-11-17T07:22:52.803Z,94238.47
2022-11-17T07:25:22.708Z,94235.97
2022-11-17T07:27:58.166Z,94242.28
2022-11-17T07:30:26.632Z,94241.25
2022-11-17T07:32:55.106Z,94235.19
2022-11-17T07:35:23.388Z,94233.47
2022-11-17T07:37:51.686Z,94217.28
2022-11-17T07:40:19.980Z,94206.53
2022-11-17T07:42:51.257Z,94226.47
2022-11-17T07:45:19.582Z,94207.94
2022-11-17T07:47:54.174Z,94226.31
2022-11-17T07:50:23.360Z,94068.25
2022-11-17T07:52:51.892Z,94115.81
2022-11-17T07:55:20.260Z,94230.94
2022-11-17T07:57:48.906Z,94228.44
2022-11-17T08:00:19.187Z,94236.03
2022-11-17T08:02:47.517Z,94233.53
2022-11-17T08:05:17.463Z,94240.91
2022-11-17T08:07:45.978Z,94197.78
2022-11-17T08:10:14.837Z,94243.88
2022-11-17T08:12:43.102Z,94239.25
2022-11-17T08:15:11.402Z,94230.88
2022-11-17T08:17:41.110Z,94250.59
2022-11-17T08:20:12.601Z,94246.94
2022-11-17T08:22:40.955Z,94238.44
2022-11-17T08:25:10.251Z,94250.06
2022-11-17T08:27:38.650Z,94243.69
2022-11-17T08:30:09.638Z,94246.03
2022-11-17T08:32:38.035Z,94099.19
2022-11-17T08:35:08.222Z,94241.22
2022-11-17T08:37:36.421Z,94238.38
2022-11-17T08:40:04.914Z,94235.56
2022-11-17T08:42:33.200Z,94235.88
2022-11-17T08:45:01.743Z,94238.72
2022-11-17T08:47:29.934Z,94233.56
2022-11-17T08:49:58.239Z,94229.47
2022-11-17T08:52:28.837Z,94217.66
2022-11-17T08:54:57.236Z,94201.94
2022-11-17T08:57:25.642Z,94224.47
2022-11-17T08:59:54.047Z,94226.50
2022-11-17T09:02:22.298Z,94223.69
2022-11-17T09:04:50.741Z,94230.41
2022-11-17T09:07:19.188Z,94234.97
2022-11-17T09:09:48.877Z,94231.81
2022-11-17T09:12:18.002Z,94216.94
2022-11-17T09:14:46.307Z,94239.66
2022-11-17T09:17:14.722Z,94233.53
2022-11-17T09:19:42.950Z,94235.25
2022-11-17T09:22:11.240Z,94224.47
2022-11-17T09:24:39.553Z,94231.19
2022-11-17T09:27:09.164Z,94234.31
2022-11-17T09:29:37.528Z,94226.00
2022-11-17T09:32:06.070Z,94142.88
2022-11-17T09:34:34.321Z,94217.09
2022-11-17T09:37:02.631Z,94219.44
2022-11-17T09:39:30.809Z,94204.56
2022-11-17T09:41:59.338Z,94187.84
2022-11-17T09:44:40.037Z,94191.72
2022-11-17T09:47:18.089Z,94211.13
2022-11-17T09:49:59.246Z,94200.34
2022-11-17T09:52:34.622Z,94152.53
2022-11-17T09:55:06.044Z,94205.22
2022-11-17T09:57:41.810Z,94219.44
2022-11-17T10:00:18.379Z,94198.94
2022-11-17T10:02:47.796Z,94202.22
2022-11-17T10:05:17.764Z,94210.53
2022-11-17T10:07:50.311Z,94207.22
2022-11-17T10:10:23.072Z,94188.75
2022-11-17T10:12:58.553Z,94192.69
2022-11-17T10:15:32.057Z,94201.91
2022-11-17T10:18:00.326Z,94205.97
2022-11-17T10:20:28.558Z,94200.66
2022-11-17T10:22:58.138Z,94202.03
2022-11-17T10:25:42.026Z,94197.53
2022-11-17T10:28:25.261Z,94106.22
2022-11-17T10:31:00.924Z,94195.84
2022-11-17T10:33:38.332Z,94188.78
2022-11-17T10:36:14.347Z,94197.72
2022-11-17T10:38:46.806Z,94185.59
2022-11-17T10:41:19.082Z,94186.25
2022-11-17T10:43:58.127Z,94200.31
2022-11-17T10:46:34.279Z,94189.84
2022-11-17T10:49:25.549Z,94195.00
2022-11-17T10:52:06.618Z,94189.31
2022-11-17T10:54:34.839Z,94184.91
2022-11-17T10:57:07.102Z,94182.25
2022-11-17T10:59:44.801Z,94178.13
2022-11-17T11:02:30.724Z,94170.00
2022-11-17T11:05:09.943Z,94180.38
2022-11-17T11:07:38.828Z,94176.75
2022-11-17T11:10:15.636Z,94178.16
2022-11-17T11:12:52.817Z,94174.81
2022-11-17T11:15:23.463Z,94177.63
2022-11-17T11:17:53.642Z,94152.81
2022-11-17T11:20:27.466Z,94179.97
2022-11-17T11:23:01.047Z,94172.06
2022-11-17T11:25:37.517Z,94181.53
2022-11-17T11:28:19.548Z,94174.59
2022-11-17T11:30:59.034Z,94161.06
2022-11-17T11:33:35.942Z,94160.91
2022-11-17T11:36:20.561Z,94158.34
2022-11-17T11:38:58.997Z,94157.13
2022-11-17T11:42:08.151Z,94162.94
2022-11-17T11:44:50.734Z,94146.41
2022-11-17T11:47:34.600Z,94154.13
2022-11-17T11:50:11.758Z,94151.94
2022-11-17T11:52:45.248Z,94150.53
2022-11-17T11:55:20.315Z,94155.72
2022-11-17T11:57:51.884Z,94116.63
2022-11-17T12:00:20.919Z,94163.53
2022-11-17T12:02:54.938Z,94171.06
2022-11-17T12:05:30.634Z,94173.56
2022-11-17T12:08:10.560Z,94159.19
2022-11-17T12:10:46.835Z,94154.59
2022-11-17T12:13:17.264Z,94085.13
2022-11-17T12:15:45.487Z,94148.72
2022-11-17T12:18:30.503Z,94152.91
2022-11-17T12:21:03.892Z,94152.69
2022-11-17T12:24:03.322Z,94154.84
2022-11-17T12:26:33.076Z,94163.00
2022-11-17T12:29:27.217Z,94159.50
2022-11-17T12:31:56.561Z,94161.91
2022-11-17T12:34:29.058Z,94157.25
2022-11-17T12:37:27.572Z,94170.00
2022-11-17T12:40:01.778Z,94160.81
2022-11-17T12:42:30.784Z,94147.69
2022-11-17T12:45:12.861Z,94152.38
2022-11-17T12:47:48.107Z,94154.06
2022-11-17T12:50:44.439Z,94162.19
2022-11-17T12:53:32.004Z,94167.44
2022-11-17T12:56:48.595Z,94171.91
2022-11-17T12:59:51.202Z,94134.63
2022-11-17T13:02:47.521Z,94157.47
2022-11-17T13:05:20.133Z,94160.06
2022-11-17T13:07:48.584Z,94152.28
2022-11-17T13:10:29.560Z,94084.44
2022-11-17T13:13:11.596Z,94163.69
2022-11-17T13:15:41.258Z,94122.09
2022-11-17T13:18:19.033Z,94173.44
2022-11-17T13:20:49.703Z,94172.63
2022-11-17T13:23:22.174Z,94154.84
2022-11-17T13:25:52.209Z,94162.69
2022-11-17T13:28:31.781Z,94162.09
2022-11-17T13:31:00.918Z,94169.38
2022-11-17T13:33:30.477Z,94167.88
2022-11-17T13:36:17.880Z,94176.69
2022-11-17T13:38:50.446Z,94176.38
2022-11-17T13:41:23.762Z,94151.59
2022-11-17T13:43:53.268Z,94178.84
2022-11-17T13:46:21.967Z,94164.13
2022-11-17T13:48:51.380Z,94182.28
2022-11-17T13:51:27.907Z,94185.19
2022-11-17T13:53:59.718Z,94197.66
2022-11-17T13:56:41.268Z,94194.50
2022-11-17T13:59:24.918Z,94198.88
2022-11-17T14:02:29.612Z,94190.75
2022-11-17T14:05:24.061Z,94186.13
2022-11-17T14:07:54.207Z,94199.34
2022-11-17T14:10:34.500Z,94201.44
2022-11-17T14:13:23.282Z,94200.34
2022-11-17T14:15:59.805Z,94209.81
2022-11-17T14:18:34.418Z,94217.03
2022-11-17T14:21:10.655Z,94220.69
2022-11-17T14:23:39.432Z,94226.16
2022-11-17T14:26:14.954Z,94228.41
2022-11-17T14:28:44.762Z,94233.28
2022-11-17T14:31:14.296Z,94234.03
2022-11-17T14:33:42.683Z,94233.09
2022-11-17T14:36:13.690Z,94224.91
2022-11-17T14:38:42.293Z,94230.44
2022-11-17T14:41:10.529Z,94223.63
2022-11-17T14:43:38.841Z,94221.66
2022-11-17T14:46:13.226Z,94220.38
2022-11-17T14:48:41.506Z,94230.22
2022-11-17T14:51:09.910Z,94206.41
2022-11-17T14:53:41.930Z,94229.66
2022-11-17T14:56:11.366Z,94235.53
2022-11-17T14:58:39.648Z,94224.03
2022-11-17T15:01:15.000Z,94233.63
2022-11-17T15:03:43.285Z,94232.66
2022-11-17T15:06:19.318Z,94201.34
2022-11-17T15:08:47.901Z,94239.19
2022-11-17T15:11:17.786Z,94258.56
2022-11-17T15:13:46.091Z,94255.19
2022-11-17T15:16:15.734Z,94257.56
2022-11-17T15:18:46.180Z,94259.50
2022-11-17T15:21:15.289Z,94261.88
2022-11-17T15:23:44.543Z,94229.13
2022-11-17T15:26:15.131Z,94274.56
2022-11-17T15:28:43.802Z,94270.66
2022-11-17T15:31:14.368Z,94268.41
2022-11-17T15:33:45.189Z,94266.19
2022-11-17T15:36:16.290Z,94272.16
2022-11-17T15:38:44.514Z,94264.47
2022-11-17T15:41:14.039Z,94270.47
2022-11-17T15:43:43.783Z,94271.59
2022-11-17T15:46:14.488Z,94279.72
2022-11-17T15:48:45.861Z,94277.31
2022-11-17T15:51:15.948Z,94276.78
2022-11-17T15:53:46.468Z,94272.50
2022-11-17T15:56:16.759Z,94274.81
2022-11-17T15:58:45.181Z,94264.00
2022-11-17T16:01:15.067Z,94273.09
2022-11-17T16:03:45.777Z,94268.81
2022-11-17T16:06:14.182Z,94250.66
2022-11-17T16:08:42.598Z,94274.44
2022-11-17T16:11:11.892Z,94275.97
2022-11-17T16:13:40.120Z,94277.81
2022-11-17T16:16:09.664Z,94269.84
2022-11-17T16:18:38.782Z,94290.66
2022-11-17T16:21:10.885Z,94297.59
2022-11-17T16:23:40.243Z,94295.09
2022-11-17T16:26:08.807Z,94298.84
2022-11-17T16:28:37.301Z,94301.19
2022-11-17T16:31:16.584Z,94289.59
2022-11-17T16:33:49.371Z,94306.91
2022-11-17T16:36:20.182Z,94322.16
2022-11-17T16:39:00.719Z,94326.72
2022-11-17T16:41:32.175Z,94309.50
2022-11-17T16:44:01.083Z,94308.56
2022-11-17T16:46:30.689Z,94316.25
2022-11-17T16:49:02.680Z,94324.47
2022-11-17T16:51:32.540Z,94322.28
2022-11-17T16:54:02.215Z,94322.31
2022-11-17T16:56:31.020Z,94324.34
2022-11-17T16:58:59.942Z,94326.41
2022-11-17T17:01:30.554Z,94320.59
2022-11-17T17:04:00.258Z,94325.94
2022-11-17T17:06:29.025Z,94327.78
2022-11-17T17:09:00.094Z,94334.69
2022-11-17T17:11:31.857Z,94327.03
2022-11-17T17:14:03.237Z,94328.91
2022-11-17T17:16:33.311Z,94322.16
2022-11-17T17:19:04.428Z,94338.69
2022-11-17T17:21:33.858Z,94335.78
2022-11-17T17:24:03.930Z,94346.03
2022-11-17T17:26:33.867Z,94358.53
2022-11-17T17:29:03.734Z,94345.13
2022-11-17T17:31:34.556Z,94345.63
2022-11-17T17:34:02.975Z,94353.75
2022-11-17T17:36:32.104Z,94363.97
2022-11-17T17:39:03.055Z,94353.91
2022-11-17T17:41:34.323Z,94359.91
2022-11-17T17:44:05.313Z,94351.69
2022-11-17T17:46:36.822Z,94361.09
2022-11-17T17:49:05.295Z,94373.94
2022-11-17T17:51:33.702Z,94370.44
2022-11-17T17:54:02.236Z,94340.94
2022-11-17T17:56:32.383Z,94355.97
2022-11-17T17:59:00.647Z,94360.63
2022-11-17T18:01:30.198Z,94368.50
2022-11-17T18:04:04.697Z,94364.44
2022-11-17T18:06:37.550Z,94362.53
2022-11-17T18:09:06.723Z,94348.59
2022-11-17T18:11:36.868Z,94362.09
2022-11-17T18:14:05.999Z,94371.19
2022-11-17T18:16:35.944Z,94371.28
2022-11-17T18:19:06.103Z,94351.56
2022-11-17T18:21:35.228Z,94371.03
2022-11-17T18:24:04.292Z,94367.91
2022-11-17T18:26:34.317Z,94366.78
2022-11-17T18:29:06.700Z,94374.34
2022-11-17T18:31:36.657Z,94364.31
2022-11-17T18:34:06.947Z,94369.94
2022-11-17T18:36:36.092Z,94361.97
2022-11-17T18:39:04.675Z,94383.69
2022-11-17T18:41:34.141Z,94367.22
2022-11-17T18:44:04.178Z,94371.66
2022-11-17T18:46:33.709Z,94380.84
2022-11-17T18:49:02.075Z,94365.84
2022-11-17T18:51:34.293Z,94378.41
2022-11-17T18:54:03.842Z,94290.06
2022-11-17T18:56:35.504Z,94391.16
2022-11-17T18:59:11.609Z,94386.22
2022-11-17T19:01:42.322Z,94390.88
2022-11-17T19:04:12.811Z,94386.50
2022-11-17T19:06:41.118Z,94397.47
2022-11-17T19:09:09.705Z,94400.44
2022-11-17T19:11:38.353Z,94398.59
2022-11-17T19:14:08.200Z,94399.75
2022-11-17T19:16:45.334Z,94394.28
2022-11-17T19:19:15.362Z,94396.75
2022-11-17T19:21:44.531Z,94403.06
2022-11-17T19:24:13.069Z,94345.56
2022-11-17T19:26:42.987Z,94400.63
2022-11-17T19:29:17.036Z,94413.97
2022-11-17T19:31:46.679Z,94409.31
2022-11-17T19:34:15.144Z,94404.94
2022-11-17T19:36:44.638Z,94400.31
2022-11-17T19:39:14.925Z,94397.66
2022-11-17T19:41:45.415Z,94393.72
2022-11-17T19:44:15.246Z,94406.91
2022-11-17T19:46:43.566Z,94404.53
2022-11-17T19:49:12.891Z,94405.63
2022-11-17T19:51:41.485Z,94406.72
2022-11-17T19:54:11.016Z,94419.88
2022-11-17T19:56:39.560Z,94410.63
2022-11-17T19:59:15.309Z,94414.03
2022-11-17T20:01:47.015Z,94383.00
2022-11-17T20:04:15.362Z,94424.41
2022-11-17T20:06:43.943Z,94383.28
2022-11-17T20:09:14.191Z,94426.09
2022-11-17T20:11:43.234Z,94425.97
2022-11-17T20:14:12.009Z,94428.00
2022-11-17T20:16:40.345Z,94428.97
2022-11-17T20:19:11.080Z,94424.38
2022-11-17T20:21:39.394Z,94426.78
2022-11-17T20:24:08.393Z,94429.03
2022-11-17T20:26:40.691Z,94430.13
2022-11-17T20:29:09.281Z,94435.34
2022-11-17T20:31:37.868Z,94432.44
2022-11-17T20:34:06.814Z,94425.56
2022-11-17T20:36:36.487Z,94434.41
2022-11-17T20:39:07.348Z,94439.75
2022-11-17T20:41:36.028Z,94431.25
2022-11-17T20:44:04.721Z,94432.69
2022-11-17T20:46:32.982Z,94385.47
2022-11-17T20:49:01.309Z,94435.53
2022-11-17T20:51:29.591Z,94432.75
2022-11-17T20:53:59.238Z,94437.19
2022-11-17T20:56:27.518Z,94430.47
2022-11-17T20:58:55.845Z,94440.09
2022-11-17T21:01:24.438Z,94433.38
2022-11-17T21:03:53.051Z,94437.59
2022-11-17T21:06:23.253Z,94428.41
2022-11-17T21:08:52.191Z,94433.22
2022-11-17T21:11:40.718Z,94435.03
2022-11-17T21:14:10.543Z,94431.38
2022-11-17T21:16:40.170Z,94431.56
2022-11-17T21:19:08.905Z,94430.06
2022-11-17T21:21:37.571Z,94431.75
2022-11-17T21:24:06.630Z,94431.91
2022-11-17T21:26:36.381Z,94439.09
2022-11-17T21:29:06.978Z,94437.78
2022-11-17T21:31:36.371Z,94444.44
2022-11-17T21:34:07.368Z,94432.28
2022-11-17T21:36:36.613Z,94440.25
2022-11-17T21:39:05.702Z,94444.84
2022-11-17T21:41:37.974Z,94438.41
2022-11-17T21:44:06.619Z,94423.03
2022-11-17T21:46:36.476Z,94439.16
2022-11-17T21:49:05.364Z,94437.06
2022-11-17T21:51:35.343Z,94442.44
2022-11-17T21:54:05.544Z,94432.41
2022-11-17T21:56:33.958Z,94437.06
2022-11-17T21:59:05.261Z,94447.09
2022-11-17T22:01:34.942Z,94424.47
2022-11-17T22:04:03.388Z,94443.97
2022-11-17T22:06:31.628Z,94451.69
2022-11-17T22:09:00.926Z,94462.13
2022-11-17T22:11:37.663Z,94459.47
2022-11-17T22:14:13.063Z,94458.78
2022-11-17T22:16:42.639Z,94385.00
2022-11-17T22:19:12.080Z,94457.97
2022-11-17T22:21:41.259Z,94468.06
2022-11-17T22:24:11.581Z,94468.91
2022-11-17T22:26:41.463Z,94472.88
2022-11-17T22:29:13.788Z,94456.56
2022-11-17T22:31:42.728Z,94463.88
2022-11-17T22:34:10.938Z,94431.06
2022-11-17T22:36:39.261Z,94473.59
2022-11-17T22:39:07.710Z,94472.63
2022-11-17T22:41:36.262Z,94459.56
2022-11-17T22:44:05.163Z,94463.28
2022-11-17T22:46:35.397Z,94458.50
2022-11-17T22:49:03.689Z,94453.94
2022-11-17T22:52:03.715Z,94457.16
2022-11-17T22:54:32.417Z,94446.31
2022-11-17T22:57:00.910Z,94452.53
2022-11-17T22:59:30.488Z,94453.91
2022-11-17T23:02:00.118Z,94459.03
2022-11-17T23:04:28.766Z,94461.28
2022-11-17T23:06:57.175Z,94458.31
2022-11-17T23:09:25.537Z,94451.75
2022-11-17T23:11:53.818Z,94458.31
2022-11-17T23:14:22.182Z,94459.47
2022-11-17T23:16:50.461Z,94456.84
2022-11-17T23:19:20.469Z,94451.63
2022-11-17T23:21:51.447Z,94462.44
2022-11-17T23:24:19.861Z,94404.66
2022-11-17T23:26:48.127Z,94400.44
2022-11-17T23:29:16.617Z,94461.97
2022-11-17T23:31:44.908Z,94454.69
2022-11-17T23:34:13.169Z,94449.72
2022-11-17T23:36:42.857Z,94456.94
2022-11-17T23:39:11.214Z,94463.81
2022-11-17T23:41:39.477Z,94457.94
2022-11-17T23:44:07.845Z,94456.34
2022-11-17T23:46:36.113Z,94454.66
2022-11-17T23:49:04.347Z,94453.72
2022-11-17T23:51:32.665Z,94454.97
2022-11-17T23:54:03.425Z,94405.25
2022-11-17T23:56:33.691Z,94463.19
2022-11-17T23:59:02.112Z,94460.50
